Time;durP1;ratioP1;P1;durP2;ratioP2;P2;SDS_P1;SDS_P2;PMS_P1;PMS_P2;Temp;Humidity;BMP_temperature;BMP_pressure;BME280_temperature;BME280_humidity;BME280_pressure;Samples;Min_cycle;Max_cycle;Signal;HPM_P1;HPM_P2
2022/09/28 00:01:09;;;;;;;4.47;3.83;;;;;;;16.47;83.62;95995.00;5089244;28;20280;-79
2022/09/28 00:03:36;;;;;;;5.57;3.73;;;;;;;16.25;84.17;95989.03;5070807;28;20280;-81
2022/09/28 00:06:06;;;;;;;4.60;3.90;;;;;;;16.08;85.34;95997.44;5105547;28;20253;-79
2022/09/28 00:08:34;;;;;;;4.17;3.77;;;;;;;15.91;85.59;96003.25;5109532;28;20181;-78
2022/09/28 00:11:02;;;;;;;6.50;4.10;;;;;;;15.71;86.14;95992.78;5109760;28;20188;-75
2022/09/28 00:13:31;;;;;;;7.33;4.53;;;;;;;15.70;86.78;95997.22;5111453;28;20195;-75
2022/09/28 00:16:02;;;;;;;6.40;4.50;;;;;;;15.83;86.93;96003.06;5112616;28;20217;-80
2022/09/28 00:18:31;;;;;;;6.67;4.73;;;;;;;15.77;86.70;96008.78;5110347;28;20192;-79
2022/09/28 00:21:01;;;;;;;6.23;3.90;;;;;;;15.69;86.41;96008.59;5109937;28;20190;-81
2022/09/28 00:23:28;;;;;;;7.93;4.23;;;;;;;15.60;86.84;96000.69;5109449;28;20206;-81
2022/09/28 00:25:55;;;;;;;4.83;4.30;;;;;;;15.46;87.75;96004.41;5109763;28;20688;-81
2022/09/28 00:28:22;;;;;;;4.43;3.77;;;;;;;15.46;88.17;96012.25;5109661;28;20190;-78
2022/09/28 00:30:54;;;;;;;4.80;3.70;;;;;;;15.41;87.78;96001.34;5091020;28;20184;-79
2022/09/28 00:33:21;;;;;;;4.70;4.00;;;;;;;15.44;87.50;96007.16;5091086;28;20184;-77
2022/09/28 00:35:56;;;;;;;4.30;3.70;;;;;;;15.34;87.85;95992.34;5108720;28;20247;-78
2022/09/28 00:38:29;;;;;;;5.17;4.17;;;;;;;15.24;87.97;95989.66;5108807;28;20219;-76
2022/09/28 00:40:56;;;;;;;5.10;4.00;;;;;;;15.22;88.07;95985.50;5090865;28;20191;-77
2022/09/28 00:43:24;;;;;;;4.10;3.70;;;;;;;15.10;88.71;96000.38;5108394;28;20228;-78
2022/09/28 00:46:14;;;;;;;4.60;3.97;;;;;;;15.07;88.91;96002.38;5090392;28;20183;-81
2022/09/28 00:48:57;;;;;;;4.47;3.70;;;;;;;14.99;89.22;95991.75;5108668;28;20540;-76
2022/09/28 00:51:25;;;;;;;5.47;3.73;;;;;;;15.13;88.65;95996.69;5108290;28;20190;-77
2022/09/28 00:53:55;;;;;;;5.40;4.10;;;;;;;15.16;88.36;96004.28;5090164;28;20206;-76
2022/09/28 00:56:27;;;;;;;4.03;3.63;;;;;;;15.35;87.68;96001.84;5108511;28;20222;-77
2022/09/28 00:58:55;;;;;;;4.83;3.37;;;;;;;15.21;86.71;95983.84;5108363;28;20196;-75
2022/09/28 01:01:23;;;;;;;3.30;3.00;;;;;;;15.38;86.68;96002.41;5073383;28;20208;-76
2022/09/28 01:03:50;;;;;;;7.60;4.30;;;;;;;15.34;86.80;96008.00;5089672;28;20561;-77
2022/09/28 01:06:23;;;;;;;4.27;3.83;;;;;;;15.23;86.58;95981.94;5090011;28;20555;-75
2022/09/28 01:08:52;;;;;;;4.53;3.70;;;;;;;15.39;86.21;96016.28;5104501;27;20279;-78
2022/09/28 01:11:20;;;;;;;4.80;3.93;;;;;;;15.39;86.13;96005.84;5094416;28;20196;-76
2022/09/28 01:13:49;;;;;;;4.40;4.00;;;;;;;15.26;86.63;96005.19;5092001;28;20572;-77
2022/09/28 01:16:25;;;;;;;5.03;4.07;;;;;;;15.13;87.28;95994.91;5074563;28;20216;-79
2022/09/28 01:19:17;;;;;;;12.03;4.37;;;;;;;15.37;86.46;95999.94;5069471;28;20196;-77
2022/09/28 01:22:13;;;;;;;5.50;3.90;;;;;;;15.40;86.16;95991.84;5087545;28;20193;-78
2022/09/28 01:24:55;;;;;;;4.40;3.80;;;;;;;15.46;85.68;95975.72;5039945;28;20201;-76
2022/09/28 01:27:37;;;;;;;8.47;3.90;;;;;;;15.63;85.05;95993.44;5087666;28;20189;-78
2022/09/28 01:30:07;;;;;;;6.60;4.37;;;;;;;15.72;84.86;95984.03;5069376;28;20186;-79
2022/09/28 01:33:00;;;;;;;6.43;3.80;;;;;;;15.81;83.81;95984.06;5087498;28;20689;-80
2022/09/28 01:35:30;;;;;;;3.73;3.33;;;;;;;15.77;83.86;95977.47;5087468;28;20233;-80
2022/09/28 01:38:02;;;;;;;4.40;3.50;;;;;;;15.79;83.59;95974.72;5092250;28;20208;-75
2022/09/28 01:40:33;;;;;;;7.10;3.40;;;;;;;15.84;83.75;95972.56;5092849;28;20187;-74
2022/09/28 01:43:05;;;;;;;6.37;3.47;;;;;;;15.85;83.30;95977.66;5073765;28;20224;-75
2022/09/28 01:45:39;;;;;;;3.67;3.17;;;;;;;15.72;83.03;95968.38;5073845;28;20619;-75
2022/09/28 01:48:09;;;;;;;5.67;3.30;;;;;;;15.72;82.73;95974.41;5083806;28;20199;-77
2022/09/28 01:50:39;;;;;;;3.90;2.80;;;;;;;15.85;82.48;95979.41;5092291;28;20203;-75
2022/09/28 01:53:50;;;;;;;3.53;3.00;;;;;;;15.79;82.56;95986.00;5087013;28;20193;-74
2022/09/28 01:56:30;;;;;;;4.57;3.10;;;;;;;15.83;81.83;95987.38;5069389;28;20216;-73
2022/09/28 01:59:12;;;;;;;3.70;3.23;;;;;;;15.64;81.15;95973.41;5087180;28;20189;-76
2022/09/28 02:01:59;;;;;;;4.97;3.07;;;;;;;15.49;81.95;95983.31;5053719;28;20749;-75
2022/09/28 02:04:35;;;;;;;3.80;3.20;;;;;;;15.38;82.60;95984.16;5068545;28;20685;-75
2022/09/28 02:07:28;;;;;;;4.23;3.33;;;;;;;15.32;82.31;95989.03;5068854;28;20177;-76
2022/09/28 02:10:11;;;;;;;4.40;3.43;;;;;;;15.01;82.50;95977.63;5068954;28;20192;-75
2022/09/28 02:12:45;;;;;;;4.57;3.23;;;;;;;14.82;82.89;95997.50;5069318;28;20664;-77
2022/09/28 02:15:30;;;;;;;4.50;3.00;;;;;;;14.88;83.45;96007.44;5068047;28;20208;-75
2022/09/28 02:18:00;;;;;;;5.13;3.03;;;;;;;15.01;83.21;96014.13;5068644;28;20249;-75
2022/09/28 02:20:33;;;;;;;3.40;3.10;;;;;;;15.07;82.69;96023.25;5064410;28;20210;-75
2022/09/28 02:23:04;;;;;;;6.83;2.97;;;;;;;14.99;82.00;96010.81;5088901;28;20190;-75
2022/09/28 02:25:42;;;;;;;4.20;2.90;;;;;;;14.95;82.40;96014.63;5088634;28;20731;-76
2022/09/28 02:28:14;;;;;;;4.60;3.53;;;;;;;14.63;83.16;96006.72;5088866;28;20671;-76
2022/09/28 02:30:43;;;;;;;6.53;3.67;;;;;;;14.33;84.44;95997.88;5106923;28;20195;-75
2022/09/28 02:33:24;;;;;;;4.10;3.70;;;;;;;14.08;85.33;96000.66;5089081;28;20588;-75
2022/09/28 02:35:54;;;;;;;4.40;3.40;;;;;;;13.73;86.57;95991.13;5088786;28;20958;-77
2022/09/28 02:38:23;;;;;;;3.90;3.50;;;;;;;13.53;88.02;95984.00;5088627;28;20195;-75
2022/09/28 02:41:03;;;;;;;4.90;3.70;;;;;;;13.43;88.91;95983.00;5122684;28;20201;-78
2022/09/28 02:44:41;;;;;;;3.90;3.37;;;;;;;13.64;88.05;95985.81;5088460;28;20229;-77
2022/09/28 02:47:14;;;;;;;6.37;3.97;;;;;;;13.72;86.88;95989.47;4970772;28;20205;-79
2022/09/28 02:49:53;;;;;;;4.33;3.40;;;;;;;13.60;87.00;95989.56;5112972;28;20566;-77
2022/09/28 02:52:49;;;;;;;6.20;4.70;;;;;;;13.57;86.75;95975.00;5106794;28;20187;-77
2022/09/28 02:55:19;;;;;;;4.30;3.50;;;;;;;13.53;87.25;95977.94;5106724;28;20248;-76
2022/09/28 02:57:55;;;;;;;4.80;3.63;;;;;;;13.78;86.21;95985.59;5106065;28;20731;-76
2022/09/28 03:00:24;;;;;;;4.63;3.60;;;;;;;13.92;84.83;95987.97;5068347;28;20188;-76
2022/09/28 03:03:03;;;;;;;5.13;4.03;;;;;;;14.15;84.75;96000.09;5086281;28;20188;-76
2022/09/28 03:05:38;;;;;;;7.87;5.20;;;;;;;14.42;83.65;96005.81;5068219;28;20830;-76
2022/09/28 03:08:18;;;;;;;7.17;5.00;;;;;;;14.46;83.05;95998.56;5086296;28;20809;-77
2022/09/28 03:10:48;;;;;;;6.30;3.60;;;;;;;14.52;83.13;96006.75;5068968;28;20699;-78
2022/09/28 03:13:16;;;;;;;7.93;5.87;;;;;;;14.68;82.60;96007.22;5070238;28;20191;-77
2022/09/28 03:15:43;;;;;;;5.30;3.73;;;;;;;14.54;81.83;96010.06;5086343;28;20216;-78
2022/09/28 03:18:16;;;;;;;4.43;3.63;;;;;;;14.72;81.34;96012.16;5068262;28;20188;-80
2022/09/28 03:20:43;;;;;;;4.33;3.43;;;;;;;14.44;81.88;96001.31;5068670;28;20180;-80
2022/09/28 03:23:12;;;;;;;4.37;3.60;;;;;;;14.32;82.38;95998.81;5086286;28;20191;-78
2022/09/28 03:26:00;;;;;;;4.13;2.97;;;;;;;14.38;83.17;96007.00;5085794;28;20211;-80
2022/09/28 03:28:28;;;;;;;5.17;3.20;;;;;;;14.25;83.29;96008.00;5106050;28;20177;-81
2022/09/28 03:30:56;;;;;;;6.60;3.57;;;;;;;14.20;83.46;96010.97;5071799;28;20189;-80
2022/09/28 03:33:23;;;;;;;6.07;3.50;;;;;;;14.09;83.44;96005.75;5071753;28;20789;-78
2022/09/28 03:35:50;;;;;;;4.70;3.60;;;;;;;14.00;84.06;95998.63;5089634;28;20248;-77
2022/09/28 03:38:18;;;;;;;4.27;3.73;;;;;;;13.85;85.07;95999.78;5071394;28;20195;-78
2022/09/28 03:40:58;;;;;;;6.00;3.97;;;;;;;13.71;85.36;95992.19;5071339;28;20196;-78
2022/09/28 03:43:30;;;;;;;7.63;3.30;;;;;;;13.85;85.41;95994.56;5071278;28;20664;-77
2022/09/28 03:46:00;;;;;;;3.90;3.50;;;;;;;13.73;85.51;95995.50;5071546;28;20190;-79
2022/09/28 03:48:34;;;;;;;6.50;3.30;;;;;;;13.67;85.82;96003.75;5072799;28;20790;-76
2022/09/28 03:51:04;;;;;;;9.40;3.63;;;;;;;13.80;85.90;96002.75;5074152;28;20219;-76
2022/09/28 03:53:32;;;;;;;4.40;3.40;;;;;;;13.93;85.39;96001.81;5114353;28;20200;-76
2022/09/28 03:56:05;;;;;;;3.70;3.27;;;;;;;14.07;84.70;96007.66;5095027;28;20224;-77
2022/09/28 03:58:33;;;;;;;8.57;3.90;;;;;;;13.94;83.58;96012.13;5093207;28;20290;-78
2022/09/28 04:01:06;;;;;;;5.10;3.47;;;;;;;13.80;84.60;95997.56;5084021;28;20191;-77
2022/09/28 04:03:33;;;;;;;7.20;3.13;;;;;;;13.70;85.15;96006.16;5092002;28;20186;-79
2022/09/28 04:06:01;;;;;;;5.90;3.47;;;;;;;13.65;85.28;96018.66;5125579;27;20191;-76
2022/09/28 04:08:29;;;;;;;4.27;3.30;;;;;;;13.41;86.35;96012.66;5091730;28;20730;-76
2022/09/28 04:11:00;;;;;;;4.10;3.70;;;;;;;13.27;86.51;96003.25;5075078;28;20202;-77
2022/09/28 04:13:28;;;;;;;4.63;3.37;;;;;;;13.16;87.31;96005.00;5091190;28;20204;-76
2022/09/28 04:15:59;;;;;;;5.13;3.57;;;;;;;13.32;87.89;96006.38;5090933;28;20225;-78
2022/09/28 04:18:30;;;;;;;4.73;3.53;;;;;;;13.42;86.61;96011.72;5090778;28;20269;-79
2022/09/28 04:21:14;;;;;;;4.33;3.27;;;;;;;13.51;86.65;96013.66;5090607;28;20185;-78
2022/09/28 04:23:53;;;;;;;4.17;3.07;;;;;;;13.50;86.71;96030.19;5090790;28;20298;-78
2022/09/28 04:26:25;;;;;;;7.83;5.70;;;;;;;13.24;87.21;96007.84;5090511;28;20193;-75
2022/09/28 04:31:41;;;;;;;6.37;5.00;;;;;;;13.09;88.21;96033.19;5090610;28;20226;-78
2022/09/28 04:34:08;;;;;;;4.50;3.70;;;;;;;13.09;88.01;96012.41;5091062;28;20726;-76
2022/09/28 04:36:35;;;;;;;5.27;3.60;;;;;;;13.17;88.12;96027.47;5080503;28;20226;-78
2022/09/28 04:39:04;;;;;;;3.60;3.30;;;;;;;13.30;87.72;96028.22;5082745;28;20227;-80
2022/09/28 04:41:32;;;;;;;4.97;3.60;;;;;;;13.44;86.51;96046.25;5090236;28;20214;-80
2022/09/28 04:43:59;;;;;;;5.23;4.23;;;;;;;13.70;86.00;96032.16;5090298;28;20730;-76
2022/09/28 04:46:27;;;;;;;5.57;3.70;;;;;;;13.75;84.89;96043.06;5090079;28;20690;-77
2022/09/28 04:49:26;;;;;;;5.13;4.00;;;;;;;14.07;84.17;96045.88;5084747;28;20208;-80
2022/09/28 04:52:01;;;;;;;6.17;4.07;;;;;;;14.05;83.74;96046.00;5089955;28;20226;-79
2022/09/28 04:54:28;;;;;;;4.80;3.30;;;;;;;14.07;83.71;96051.91;5090203;28;20687;-79
2022/09/28 04:56:57;;;;;;;4.93;3.50;;;;;;;13.94;84.35;96043.34;5073806;28;20238;-79
2022/09/28 04:59:25;;;;;;;4.50;3.57;;;;;;;14.15;83.67;96064.34;5089893;28;20188;-77
2022/09/28 05:01:52;;;;;;;4.10;3.70;;;;;;;14.10;83.43;96056.88;5089772;28;20639;-77
2022/09/28 05:04:19;;;;;;;6.57;4.23;;;;;;;14.12;83.29;96060.19;5108004;28;20247;-78
2022/09/28 05:07:10;;;;;;;3.97;3.50;;;;;;;14.03;84.34;96060.06;5107983;28;20187;-77
2022/09/28 05:09:37;;;;;;;5.93;3.90;;;;;;;14.13;83.98;96061.03;5092092;28;20206;-78
2022/09/28 05:12:04;;;;;;;5.70;3.57;;;;;;;14.13;83.92;96061.03;5073262;28;20222;-80
2022/09/28 05:14:31;;;;;;;4.77;3.37;;;;;;;14.31;83.37;96073.50;5090259;28;20182;-78
2022/09/28 05:17:04;;;;;;;4.17;3.73;;;;;;;14.28;83.89;96060.72;5090026;28;20215;-75
2022/09/28 05:19:39;;;;;;;4.63;3.20;;;;;;;14.26;83.30;96064.38;5123904;27;20184;-76
2022/09/28 05:22:12;;;;;;;3.93;3.20;;;;;;;14.14;84.76;96073.09;5090102;28;20247;-79
2022/09/28 05:24:45;;;;;;;3.90;3.50;;;;;;;14.42;83.58;96077.91;5089501;28;20610;-77
2022/09/28 05:27:12;;;;;;;3.90;3.47;;;;;;;14.47;83.21;96076.59;5089845;28;20198;-78
2022/09/28 05:29:40;;;;;;;5.07;3.93;;;;;;;14.38;82.82;96076.50;5090044;28;20662;-83
2022/09/28 05:32:45;;;;;;;4.33;3.93;;;;;;;14.56;82.91;96080.28;5107432;28;20199;-80
2022/09/28 05:35:28;;;;;;;5.83;4.83;;;;;;;14.58;82.39;96071.41;5092068;28;20685;-77
2022/09/28 05:37:56;;;;;;;6.17;5.23;;;;;;;14.83;81.63;96072.13;5108130;28;20357;-81
2022/09/28 05:40:23;;;;;;;5.80;5.23;;;;;;;15.04;80.88;96062.63;5089572;28;20212;-80
2022/09/28 05:42:50;;;;;;;6.03;5.47;;;;;;;15.26;80.07;96075.59;5089230;28;20239;-79
2022/09/28 05:45:17;;;;;;;8.13;5.30;;;;;;;15.55;79.12;96073.31;5089668;28;20621;-80
2022/09/28 05:47:47;;;;;;;6.30;5.20;;;;;;;15.74;77.81;96076.09;5092862;28;20188;-79
2022/09/28 05:50:19;;;;;;;7.93;6.20;;;;;;;16.05;77.24;96078.66;5088522;28;20196;-80
2022/09/28 05:52:57;;;;;;;9.20;6.40;;;;;;;16.46;76.70;96079.63;5089455;28;20196;-79
2022/09/28 05:55:27;;;;;;;7.20;5.50;;;;;;;16.57;75.23;96074.34;5089627;28;20196;-79
2022/09/28 05:57:59;;;;;;;8.77;6.13;;;;;;;16.70;75.01;96075.78;5072776;28;20195;-79
2022/09/28 06:00:27;;;;;;;11.30;6.17;;;;;;;16.79;74.37;96056.69;5088840;28;20266;-80
2022/09/28 06:03:00;;;;;;;6.13;5.57;;;;;;;17.01;73.55;96081.81;5071680;28;20899;-80
2022/09/28 06:05:38;;;;;;;10.73;6.17;;;;;;;17.13;73.31;96080.75;5090729;28;20646;-78
2022/09/28 06:08:09;;;;;;;11.70;5.90;;;;;;;17.25;73.08;96074.44;5089809;28;20673;-76
2022/09/28 06:10:38;;;;;;;12.13;6.00;;;;;;;17.38;73.39;96074.19;5076779;28;20230;-81
2022/09/28 06:13:05;;;;;;;16.67;6.20;;;;;;;17.73;72.82;96091.09;5089352;28;20197;-80
2022/09/28 06:15:34;;;;;;;8.13;4.47;;;;;;;17.88;71.45;96094.97;5105923;28;20187;-81
2022/09/28 06:18:08;;;;;;;12.70;5.07;;;;;;;17.91;71.03;96086.00;5089080;28;20688;-77
2022/09/28 06:20:42;;;;;;;7.90;5.53;;;;;;;18.05;70.98;96077.75;5088948;28;20611;-80
2022/09/28 06:23:14;;;;;;;14.23;5.33;;;;;;;18.16;70.22;96079.34;5089115;28;20672;-79
2022/09/28 06:25:44;;;;;;;13.10;7.20;;;;;;;18.21;69.98;96058.81;5088947;28;20674;-80
2022/09/28 06:28:13;;;;;;;15.13;7.47;;;;;;;18.60;69.49;96086.63;5089486;28;20182;-80
2022/09/28 06:30:41;;;;;;;11.27;5.80;;;;;;;18.63;67.99;96078.47;5089061;28;20565;-80
2022/09/28 06:33:13;;;;;;;5.37;4.17;;;;;;;18.60;67.82;96087.47;5107215;28;20209;-76
2022/09/28 06:35:42;;;;;;;10.60;3.97;;;;;;;18.58;68.28;96093.81;5106527;28;20194;-76
2022/09/28 06:38:09;;;;;;;8.80;3.50;;;;;;;18.69;67.81;96086.59;5089267;28;20288;-77
2022/09/28 06:40:37;;;;;;;16.27;5.20;;;;;;;18.80;67.92;96093.47;5088338;28;20213;-80
2022/09/28 06:43:10;;;;;;;13.60;3.87;;;;;;;18.95;67.20;96092.03;5106600;28;20256;-80
2022/09/28 06:45:58;;;;;;;10.57;4.07;;;;;;;19.06;66.21;96089.22;5106863;28;20197;-76
2022/09/28 06:48:44;;;;;;;10.80;4.33;;;;;;;19.08;65.55;96097.75;5106810;28;20744;-80
2022/09/28 06:51:16;;;;;;;8.07;4.47;;;;;;;18.91;66.35;96066.22;5088566;28;20191;-81
2022/09/28 06:54:03;;;;;;;9.00;5.00;;;;;;;18.97;65.99;96079.59;5106394;28;20651;-79
2022/09/28 06:56:39;;;;;;;5.37;3.03;;;;;;;18.94;66.21;96085.13;5106305;28;20536;-77
2022/09/28 06:59:06;;;;;;;7.80;3.43;;;;;;;18.93;66.11;96078.25;5088458;28;20176;-80
2022/09/28 07:01:35;;;;;;;7.77;3.63;;;;;;;19.02;67.09;96085.22;5072662;28;20205;-76
2022/09/28 07:04:41;;;;;;;6.70;3.30;;;;;;;19.06;68.11;96097.09;5047085;28;20201;-82
2022/09/28 07:07:39;;;;;;;6.57;3.10;;;;;;;19.28;66.53;96099.34;5030686;28;20184;-80
2022/09/28 07:10:27;;;;;;;13.13;3.57;;;;;;;19.46;66.02;96102.88;5102228;28;20199;-78
2022/09/28 07:13:19;;;;;;;6.57;3.53;;;;;;;19.49;66.10;96086.81;5075929;28;20545;-82
2022/09/28 07:16:06;;;;;;;8.90;3.80;;;;;;;19.53;66.50;96081.25;5093030;28;20211;-81
2022/09/28 07:18:34;;;;;;;12.00;3.80;;;;;;;19.63;66.61;96092.53;5092598;28;20245;-79
2022/09/28 07:21:02;;;;;;;5.27;2.77;;;;;;;19.64;66.80;96094.19;5091841;28;20224;-79
2022/09/28 07:23:30;;;;;;;4.07;3.03;;;;;;;19.38;67.19;96088.81;5109908;28;20197;-78
2022/09/28 07:26:19;;;;;;;3.93;2.80;;;;;;;19.33;68.00;96091.03;5078149;28;20634;-78
2022/09/28 07:29:08;;;;;;;4.17;3.00;;;;;;;19.21;68.95;96077.25;5091836;28;20201;-82
2022/09/28 07:31:59;;;;;;;4.23;3.30;;;;;;;19.28;69.60;96091.47;5092134;28;20195;-80
2022/09/28 07:34:42;;;;;;;5.13;3.13;;;;;;;19.37;70.58;96087.97;5092214;28;20182;-84
2022/09/28 07:37:18;;;;;;;5.33;3.40;;;;;;;19.59;70.13;96072.78;5092160;28;20221;-80
2022/09/28 07:42:37;;;;;;;4.20;3.30;;;;;;;20.30;67.04;96084.97;5092191;28;20313;-82
2022/09/28 07:45:05;;;;;;;7.93;3.57;;;;;;;20.53;65.72;96082.66;5074623;28;20213;-77
2022/09/28 07:47:32;;;;;;;7.27;2.97;;;;;;;20.58;65.10;96089.13;5092335;28;20198;-81
2022/09/28 07:50:20;;;;;;;4.87;3.60;;;;;;;20.77;64.35;96103.88;5109010;28;20187;-79
2022/09/28 07:53:00;;;;;;;5.20;3.00;;;;;;;20.94;63.21;96103.81;5090937;28;20200;-81
2022/09/28 07:55:31;;;;;;;3.00;1.90;;;;;;;20.85;61.33;96057.38;5109789;28;20264;-80
2022/09/28 07:58:09;;;;;;;10.90;2.47;;;;;;;21.11;58.84;96077.59;5108833;28;20726;-79
2022/09/28 08:01:06;;;;;;;6.73;3.90;;;;;;;21.48;59.14;96091.22;5108998;28;20184;-79
2022/09/28 08:03:34;;;;;;;5.77;3.23;;;;;;;21.36;57.52;96090.72;5091376;28;20633;-79
2022/09/28 08:06:05;;;;;;;4.43;2.60;;;;;;;21.48;58.23;96088.59;5109425;28;20215;-82
2022/09/28 08:08:34;;;;;;;8.37;3.40;;;;;;;21.70;58.17;96101.19;5110708;28;20237;-81
2022/09/28 08:11:01;;;;;;;3.00;2.07;;;;;;;21.74;55.55;96090.16;5081422;28;20195;-80
2022/09/28 08:13:47;;;;;;;10.83;4.03;;;;;;;21.55;55.18;96060.63;5112869;28;20182;-80
2022/09/28 08:16:34;;;;;;;11.50;2.77;;;;;;;21.91;54.65;96093.69;5104387;28;20233;-83
2022/09/28 08:19:13;;;;;;;12.13;4.27;;;;;;;22.14;54.45;96094.69;5091760;28;20199;-80
2022/09/28 08:21:46;;;;;;;6.07;2.77;;;;;;;22.17;52.69;96102.28;5109578;28;20194;-79
2022/09/28 08:24:15;;;;;;;2.80;1.87;;;;;;;22.13;51.97;96108.06;5109885;28;20733;-76
2022/09/28 08:26:44;;;;;;;1.80;1.60;;;;;;;22.00;51.40;96094.50;5091086;28;20185;-79
2022/09/28 08:29:15;;;;;;;11.50;2.97;;;;;;;22.20;51.62;96109.03;5090736;28;20211;-80
2022/09/28 08:31:42;;;;;;;3.27;1.80;;;;;;;22.18;50.39;96090.75;5109007;28;20272;-78
2022/09/28 08:34:29;;;;;;;2.73;1.67;;;;;;;22.31;50.12;96096.34;5107117;28;20272;-80
2022/09/28 08:37:08;;;;;;;2.60;1.87;;;;;;;22.37;50.30;96095.69;5110856;28;20317;-82
2022/09/28 08:39:56;;;;;;;2.93;1.80;;;;;;;22.29;50.92;96095.69;5084618;28;20284;-81
2022/09/28 08:42:47;;;;;;;14.20;3.27;;;;;;;22.49;51.83;96098.81;5110672;28;20238;-80
2022/09/28 08:45:40;;;;;;;3.67;2.27;;;;;;;22.54;51.62;96096.50;5077821;28;20199;-80
2022/09/28 08:48:52;;;;;;;12.53;3.53;;;;;;;22.73;51.53;96090.88;5110752;28;20272;-78
2022/09/28 08:52:22;;;;;;;8.83;4.80;;;;;;;22.69;51.04;96079.03;5090314;28;20327;-81
2022/09/28 08:55:38;;;;;;;9.13;5.03;;;;;;;22.87;50.37;96086.75;5092252;28;20198;-81
2022/09/28 08:58:13;;;;;;;3.67;2.73;;;;;;;23.03;50.02;96087.53;5107464;28;20273;-81
2022/09/28 09:00:51;;;;;;;5.13;2.60;;;;;;;23.18;49.70;96088.50;5074165;28;20194;-79
2022/09/28 09:03:34;;;;;;;8.90;2.90;;;;;;;23.18;49.80;96087.66;5091702;28;20186;-79
2022/09/28 09:06:43;;;;;;;4.80;2.13;;;;;;;23.23;48.49;96087.94;5070009;28;20686;-77
2022/09/28 09:09:34;;;;;;;2.77;1.60;;;;;;;22.99;48.84;96085.41;5094447;28;20183;-79
2022/09/28 09:12:21;;;;;;;2.93;2.43;;;;;;;22.76;50.46;96092.38;5091362;28;20214;-79
2022/09/28 09:15:31;;;;;;;3.50;2.23;;;;;;;22.91;49.69;96098.63;5109623;28;20508;-76
2022/09/28 09:18:42;;;;;;;3.10;1.80;;;;;;;23.05;48.84;96095.28;5090745;28;20222;-79
2022/09/28 09:22:00;;;;;;;4.13;2.50;;;;;;;23.29;49.37;96095.19;5088602;28;20622;-80
2022/09/28 09:24:36;;;;;;;5.03;2.47;;;;;;;23.44;49.04;96088.22;5090001;28;20191;-80
2022/09/28 09:27:17;;;;;;;5.53;2.47;;;;;;;23.53;48.41;96100.44;5089831;28;20319;-80
2022/09/28 09:29:52;;;;;;;4.63;2.10;;;;;;;23.56;48.26;96100.06;5089745;28;20674;-79
2022/09/28 09:32:44;;;;;;;4.67;2.90;;;;;;;23.72;48.07;96094.69;5088911;28;20323;-77
2022/09/28 09:35:38;;;;;;;5.20;2.33;;;;;;;23.88;48.65;96093.78;5106965;28;20181;-77
2022/09/28 09:38:52;;;;;;;1.57;1.43;;;;;;;23.82;47.57;96092.66;5107365;28;20222;-80
2022/09/28 09:41:50;;;;;;;2.07;1.47;;;;;;;23.41;47.62;96038.38;5092315;28;20190;-79
2022/09/28 09:44:51;;;;;;;4.60;2.27;;;;;;;23.92;47.86;96090.63;5107625;28;20257;-79
2022/09/28 09:48:03;;;;;;;2.50;1.60;;;;;;;23.76;47.51;96092.53;5077382;28;20661;-81
2022/09/28 09:50:44;;;;;;;1.67;1.43;;;;;;;23.68;47.96;96077.53;5107475;28;20272;-79
2022/09/28 09:53:23;;;;;;;3.67;1.90;;;;;;;23.84;48.30;96084.56;5089213;28;20221;-78
2022/09/28 09:56:00;;;;;;;9.43;2.77;;;;;;;24.17;47.29;96081.53;5089310;28;20180;-77
2022/09/28 09:58:49;;;;;;;6.03;2.37;;;;;;;24.44;46.49;96079.34;5089010;28;20268;-85
2022/09/28 10:01:46;;;;;;;4.03;2.20;;;;;;;24.55;46.38;96063.03;5092828;28;20201;-78
2022/09/28 10:04:56;;;;;;;5.67;2.23;;;;;;;24.70;46.54;96074.47;5088527;28;20296;-80
2022/09/28 10:07:41;;;;;;;2.67;1.60;;;;;;;24.43;46.43;96064.47;5088749;28;20565;-78
2022/09/28 10:10:32;;;;;;;1.70;1.50;;;;;;;23.97;46.54;96045.94;5108896;28;20187;-80
2022/09/28 10:13:07;;;;;;;4.47;1.87;;;;;;;24.00;47.69;96065.94;5084898;28;20755;-82
2022/09/28 10:15:35;;;;;;;5.33;2.60;;;;;;;24.31;47.04;96063.25;5088250;28;20193;-80
2022/09/28 10:18:31;;;;;;;4.30;2.40;;;;;;;24.56;47.68;96049.63;5098858;28;20225;-80
2022/09/28 10:21:36;;;;;;;8.73;2.60;;;;;;;24.90;46.33;96043.81;5063759;28;20224;-79
2022/09/28 10:24:40;;;;;;;3.87;2.23;;;;;;;25.02;46.44;96047.66;5058501;28;20201;-78
2022/09/28 10:27:13;;;;;;;5.17;1.80;;;;;;;24.63;45.98;96002.88;5088346;28;20190;-80
2022/09/28 10:29:49;;;;;;;1.80;1.67;;;;;;;24.76;45.84;96026.09;5107382;28;20195;-77
2022/09/28 10:32:23;;;;;;;5.67;2.10;;;;;;;25.06;43.98;96050.78;5089835;28;20183;-78
2022/09/28 10:35:11;;;;;;;4.20;2.40;;;;;;;25.05;44.23;96042.00;5072764;28;20196;-80
2022/09/28 10:37:58;;;;;;;4.43;1.47;;;;;;;25.13;43.61;96044.56;5092079;28;20243;-79
2022/09/28 10:41:12;;;;;;;3.57;1.93;;;;;;;25.26;43.93;96044.75;5103453;28;20201;-79
2022/09/28 10:44:09;;;;;;;9.13;2.20;;;;;;;25.40;43.14;96043.88;5088996;28;20275;-80
2022/09/28 10:46:54;;;;;;;3.13;1.90;;;;;;;25.50;41.18;96025.88;5072004;28;20285;-79
2022/09/28 10:49:23;;;;;;;7.97;2.30;;;;;;;25.66;41.51;96041.56;5089186;28;20285;-80
2022/09/28 10:51:56;;;;;;;3.67;2.03;;;;;;;25.58;40.93;96033.72;5072080;28;20247;-79
2022/09/28 10:54:31;;;;;;;5.10;1.77;;;;;;;25.68;40.73;96039.53;5090665;28;20183;-79
2022/09/28 10:56:59;;;;;;;2.67;1.37;;;;;;;25.68;40.55;96036.06;5088837;28;20210;-79
2022/09/28 10:59:46;;;;;;;3.47;1.50;;;;;;;25.65;39.97;96028.50;5089862;28;20681;-79
2022/09/28 11:02:46;;;;;;;7.23;2.20;;;;;;;25.54;41.41;96037.75;5057037;28;20210;-80
2022/09/28 11:05:28;;;;;;;2.93;1.30;;;;;;;25.56;40.92;96035.75;5092250;28;20586;-80
2022/09/28 11:08:01;;;;;;;8.73;2.40;;;;;;;25.68;40.83;96036.91;5089307;28;20188;-80
2022/09/28 11:10:37;;;;;;;8.73;3.20;;;;;;;25.99;40.85;96030.50;5090380;28;20192;-80
2022/09/28 11:13:11;;;;;;;4.33;2.30;;;;;;;25.94;40.01;96022.25;5088801;28;20261;-80
2022/09/28 11:15:43;;;;;;;14.57;2.23;;;;;;;26.05;39.22;96017.25;5071610;28;20206;-78
2022/09/28 11:18:18;;;;;;;5.90;2.07;;;;;;;26.27;39.07;96010.97;5088058;28;20248;-80
2022/09/28 11:20:45;;;;;;;3.37;2.10;;;;;;;26.25;38.48;95998.91;5088812;28;20203;-78
2022/09/28 11:23:20;;;;;;;1.63;1.30;;;;;;;26.27;36.27;95986.25;5106017;28;20204;-82
2022/09/28 11:26:03;;;;;;;2.00;1.50;;;;;;;26.42;35.81;96013.53;5088660;28;20681;-76
2022/09/28 11:28:33;;;;;;;4.33;1.80;;;;;;;26.41;36.21;96004.75;5089723;28;20212;-80
2022/09/28 11:31:07;;;;;;;3.40;1.43;;;;;;;26.42;36.24;95995.75;5072400;28;20191;-81
2022/09/28 11:33:46;;;;;;;2.77;1.30;;;;;;;26.25;36.24;95998.91;5071675;28;20567;-80
2022/09/28 11:36:34;;;;;;;4.37;1.20;;;;;;;26.28;36.45;95998.50;5089285;28;20188;-78
2022/09/28 11:39:16;;;;;;;2.90;1.93;;;;;;;26.26;36.22;95995.22;5089682;28;20219;-77
2022/09/28 11:42:34;;;;;;;3.83;1.80;;;;;;;26.28;35.33;95995.84;5089401;28;20188;-78
2022/09/28 11:45:43;;;;;;;3.23;1.20;;;;;;;26.13;34.57;95964.06;5111173;28;20188;-79
2022/09/28 11:48:17;;;;;;;1.63;1.20;;;;;;;26.33;35.01;96004.91;5086581;28;20770;-80
2022/09/28 11:50:59;;;;;;;2.63;1.30;;;;;;;26.28;35.42;95990.53;5110453;28;20613;-78
2022/09/28 11:53:41;;;;;;;1.53;1.20;;;;;;;26.27;35.42;95981.78;5091506;28;20203;-80
2022/09/28 11:56:26;;;;;;;3.30;2.03;;;;;;;26.33;34.97;95988.13;5091958;28;20771;-80
2022/09/28 11:58:59;;;;;;;2.50;1.50;;;;;;;26.25;34.43;95982.97;5090953;28;20242;-80
2022/09/28 12:01:47;;;;;;;3.53;2.00;;;;;;;26.27;34.92;95981.78;5091281;28;20211;-79
2022/09/28 12:04:39;;;;;;;4.90;2.43;;;;;;;26.32;34.45;95994.44;5092077;28;20215;-79
2022/09/28 12:07:18;;;;;;;2.57;1.97;;;;;;;26.31;34.61;95987.50;5092055;28;20286;-79
2022/09/28 12:10:08;;;;;;;3.43;2.10;;;;;;;26.22;33.78;95988.66;5090933;28;20180;-80
2022/09/28 12:12:47;;;;;;;2.10;1.80;;;;;;;26.29;34.05;95979.75;5091408;28;20185;-80
2022/09/28 12:15:20;;;;;;;6.03;2.60;;;;;;;26.32;33.65;95982.00;5091640;28;20215;-79
2022/09/28 12:17:53;;;;;;;2.20;2.00;;;;;;;26.35;34.44;95980.78;5109599;28;20223;-79
2022/09/28 12:20:31;;;;;;;3.63;2.53;;;;;;;26.46;34.30;95981.06;5109367;28;20180;-79
2022/09/28 12:22:58;;;;;;;9.60;1.83;;;;;;;26.38;33.92;95981.22;5109571;28;20184;-79
2022/09/28 12:25:27;;;;;;;1.70;1.30;;;;;;;26.26;34.44;95981.94;5109284;28;20192;-80
2022/09/28 12:28:12;;;;;;;5.10;1.87;;;;;;;26.22;34.17;95983.34;5109143;28;20232;-79